Latest Weather Observations for Collie East

IDW60801

Issued at 6:32 pm WST Saturday 25 April 2015 (issued every 30 minutes, with the page automatically refreshed every 10 minutes)

About weather observations | Map of weather stations | Latest weather observations for WA | Other Formats
Station Details ID: 009994 Name: COLLIE EAST Lat: -33.36 Lon: 116.17 Height: 200.0 m
Data from the previous 72 hours. | See also: Recent months at Collie East
Date/Time
WST
Temp
°C
App
Temp
°C
Dew
Point
Rel
Hum
%
Delta-T
°C
Wind Press
QNH
hPa
Press
MSL
hPa
Rain
since 9 am
mm
Dir
 
Spd
km/h
Gust
km/h
Spd
kts
Gust
kts
25/06:30pm 14.8 12.4 5.3 53 4.5 ESE 7 11 4 6 - - 0.0
25/06:00pm 15.8 13.4 5.4 50 5.0 ESE 7 17 4 9 - - 0.0
25/05:30pm 16.6 13.8 5.3 47 5.5 ESE 9 15 5 8 - - 0.0
25/05:00pm 17.7 14.5 5.0 43 6.2 ESE 11 20 6 11 - - 0.0
25/04:30pm 18.3 15.1 5.2 42 6.4 E 11 19 6 10 - - 0.0
25/04:00pm 18.5 14.5 5.0 41 6.6 ESE 15 24 8 13 - - 0.0
25/03:30pm 19.1 15.5 5.2 40 6.8 E 13 22 7 12 - - 0.0
25/03:00pm 18.5 14.9 5.0 41 6.6 ESE 13 20 7 11 - - 0.0
25/02:30pm 18.6 15.1 5.5 42 6.5 ESE 13 24 7 13 - - 0.0
25/02:00pm 18.9 15.8 5.7 42 6.5 ESE 11 22 6 12 - - 0.0
25/01:30pm 18.2 14.8 5.8 44 6.1 ESE 13 26 7 14 - - 0.0
25/01:00pm 18.8 14.7 6.3 44 6.3 ENE 17 26 9 14 - - 0.0
25/12:30pm 18.0 14.5 5.6 44 6.1 E 13 20 7 11 - - 0.0
25/12:00pm 18.5 14.8 6.4 45 6.1 ENE 15 26 8 14 - - 0.0
25/11:30am 17.5 13.3 7.3 51 5.2 NE 19 30 10 16 - - 0.0
25/11:00am 16.4 13.1 6.5 52 4.9 E 13 26 7 14 - - 0.0
25/10:30am 15.5 11.7 6.0 53 4.6 E 15 24 8 13 - - 0.0
25/10:00am 15.7 11.2 6.2 53 4.7 ENE 19 24 10 13 - - 0.0
25/09:30am 14.6 12.0 7.9 64 3.4 E 11 20 6 11 - - 0.0
25/09:00am 13.4 11.1 7.4 67 3.0 ESE 9 17 5 9 - - 0.0
25/08:30am 12.6 10.4 7.7 72 2.4 ESE 9 15 5 8 - - 0.0
25/08:00am 10.6 8.8 7.3 80 1.6 SE 6 9 3 5 - - 0.0
25/07:30am 8.8 7.0 7.1 89 0.8 SE 6 9 3 5 - - 0.0
25/07:00am 7.1 5.3 5.3 88 0.8 SE 4 7 2 4 - - 0.0
25/06:30am 7.6 5.8 5.6 87 0.9 SE 4 7 2 4 - - 0.0
25/06:00am 8.2 6.1 5.8 85 1.1 ESE 6 7 3 4 - - 0.0
25/05:30am 9.0 7.3 5.9 81 1.4 SE 4 7 2 4 - - 0.0
25/05:00am 10.2 8.0 6.4 77 1.8 SE 7 11 4 6 - - 0.0
25/04:30am 10.8 8.7 6.6 75 2.0 ESE 7 13 4 7 - - 0.0
25/04:00am 10.9 8.8 6.8 76 2.0 ESE 7 15 4 8 - - 0.0
25/03:30am 11.3 9.2 6.6 73 2.2 ESE 7 11 4 6 - - 0.0
25/03:00am 11.6 9.1 6.5 71 2.4 ESE 9 15 5 8 - - 0.0
25/02:30am 11.7 9.6 6.6 71 2.4 ESE 7 13 4 7 - - 0.0
25/02:00am 12.0 9.5 6.7 70 2.6 ESE 9 13 5 7 - - 0.0
25/01:30am 12.3 10.2 6.8 69 2.7 ESE 7 11 4 6 - - 0.0
25/01:00am 12.4 9.9 6.5 67 2.8 ESE 9 19 5 10 - - 0.0
25/12:30am 12.6 10.0 6.2 65 3.1 ESE 9 17 5 9 - - 0.0
25/12:00am 12.7 10.0 5.8 63 3.3 ESE 9 17 5 9 - - 0.0
 
Date/Time
WST
Temp
°C
App
Temp
°C
Dew
Point
Rel
Hum
%
Delta-T
°C
Wind Press
QNH
hPa
Press
MSL
hPa
Rain
since 9 am
mm
Dir
 
Spd
km/h
Gust
km/h
Spd
kts
Gust
kts
24/11:30pm 12.9 9.7 5.3 60 3.6 ESE 11 19 6 10 - - 0.0
24/11:00pm 13.1 9.9 5.0 58 3.8 ESE 11 22 6 12 - - 0.0
24/10:30pm 13.0 10.3 5.4 60 3.6 ESE 9 15 5 8 - - 0.0
24/10:00pm 12.7 10.5 6.3 65 3.1 ESE 7 15 4 8 - - 0.0
24/09:30pm 12.7 10.0 5.8 63 3.3 ESE 9 17 5 9 - - 0.0
24/09:00pm 12.8 10.0 5.2 60 3.6 SE 9 17 5 9 - - 0.0
24/08:30pm 12.6 10.1 4.8 59 3.6 ESE 7 11 4 6 - - 0.0
24/08:00pm 12.9 10.4 4.8 58 3.8 ESE 7 11 4 6 - - 0.0
24/07:30pm 13.3 10.8 4.7 56 4.0 ESE 7 11 4 6 - - 0.0
24/07:00pm 13.6 10.8 5.3 57 3.9 ESE 9 17 5 9 - - 0.0
24/06:30pm 14.0 10.9 5.4 56 4.1 ESE 11 20 6 11 - - 0.0
24/06:00pm 14.2 11.1 5.6 56 4.1 SE 11 20 6 11 - - 0.0
24/05:30pm 14.6 11.5 5.4 54 4.4 ESE 11 20 6 11 - - 0.0
24/05:00pm 15.2 11.6 5.1 51 4.8 ESE 13 28 7 15 - - 0.0
24/04:30pm 16.0 13.2 5.3 49 5.2 ESE 9 24 5 13 - - 0.0
24/04:00pm 16.3 12.3 4.7 46 5.5 ESE 15 28 8 15 - - 0.0
24/03:30pm 16.4 12.4 5.1 47 5.4 ESE 15 26 8 14 - - 0.0
24/03:00pm 16.5 11.7 4.9 46 5.6 SE 19 33 10 18 - - 0.0
24/02:30pm 17.0 13.2 5.6 47 5.6 ESE 15 26 8 14 - - 0.0
24/02:00pm 16.3 13.0 6.2 51 5.0 ESE 13 26 7 14 - - 0.0
24/01:30pm 15.8 12.2 5.1 49 5.1 ESE 13 24 7 13 - - 0.0
24/01:00pm 16.2 12.1 4.6 46 5.5 ESE 15 30 8 16 - - 0.0
24/12:30pm 16.1 12.1 5.1 48 5.3 ESE 15 30 8 16 - - 0.0
24/12:00pm 16.0 11.8 5.6 50 5.0 E 17 35 9 19 - - 0.0
24/11:30am 15.6 11.3 5.2 50 5.0 ESE 17 28 9 15 - - 0.0
24/11:00am 15.2 10.8 4.9 50 4.9 ESE 17 33 9 18 - - 0.0
24/10:30am 14.9 11.0 5.4 53 4.5 ESE 15 32 8 17 - - 0.0
24/10:00am 13.4 9.0 4.6 55 4.1 ESE 17 26 9 14 - - 0.0
24/09:30am 13.6 8.9 5.0 56 4.0 ESE 19 41 10 22 - - 0.0
24/09:00am 12.2 7.3 3.9 57 3.8 ESE 19 30 10 16 - - 0.0
24/08:30am 13.0 8.9 4.4 56 4.0 ESE 15 30 8 16 - - 0.0
24/08:00am 12.1 8.7 4.1 58 3.6 ESE 11 20 6 11 - - 0.0
24/07:30am 11.1 7.7 4.1 62 3.2 ESE 11 17 6 9 - - 0.0
24/07:00am 9.9 6.9 3.9 66 2.7 ESE 9 19 5 10 - - 0.0
24/06:30am 9.1 6.6 3.5 68 2.4 ESE 6 9 3 5 - - 0.0
24/06:00am 9.3 6.5 3.1 65 2.7 ESE 7 11 4 6 - - 0.0
24/05:30am 9.6 6.8 2.9 63 2.9 E 7 11 4 6 - - 0.0
24/05:00am 10.0 6.4 3.1 62 3.0 ESE 11 20 6 11 - - 0.0
24/04:30am 10.5 6.2 3.5 62 3.1 ESE 15 35 8 19 - - 0.0
24/04:00am 9.9 6.5 4.1 67 2.6 ESE 11 26 6 14 - - 0.0
24/03:30am 6.9 4.3 3.3 78 1.5 ESE 6 7 3 4 - - 0.0
24/03:00am 8.0 5.4 3.1 71 2.1 ESE 6 13 3 7 - - 0.0
24/02:30am 8.7 6.1 3.1 68 2.4 ESE 6 9 3 5 - - 0.0
24/02:00am 9.4 6.7 3.6 67 2.5 ESE 7 11 4 6 - - 0.0
24/01:30am 9.6 6.6 4.0 68 2.5 SE 9 15 5 8 - - 0.0
24/01:00am 9.8 7.2 4.4 69 2.4 SE 7 15 4 8 - - 0.0
24/12:30am 10.3 7.1 4.9 69 2.5 SE 11 20 6 11 - - 0.0
24/12:00am 10.5 7.7 5.1 69 2.5 SE 9 20 5 11 - - 0.0
 
Date/Time
WST
Temp
°C
App
Temp
°C
Dew
Point
Rel
Hum
%
Delta-T
°C
Wind Press
QNH
hPa
Press
MSL
hPa
Rain
since 9 am
mm
Dir
 
Spd
km/h
Gust
km/h
Spd
kts
Gust
kts
23/11:30pm 10.9 7.9 5.9 71 2.3 SE 11 17 6 9 - - 0.0
23/11:00pm 11.5 8.2 6.2 70 2.5 SE 13 26 7 14 - - 0.0
23/10:30pm 12.2 9.3 6.7 69 2.7 ESE 11 17 6 9 - - 0.0
23/10:00pm 13.1 10.0 7.1 67 2.9 SE 13 28 7 15 - - 0.0
23/09:30pm 13.3 10.3 7.7 69 2.8 SE 13 28 7 15 - - 0.0
23/09:00pm 13.5 10.2 7.9 69 2.8 ESE 15 26 8 14 - - 0.0
23/08:30pm 13.7 11.2 8.3 70 2.7 ESE 11 20 6 11 - - 0.0
23/08:00pm 14.0 11.5 8.4 69 2.8 ESE 11 26 6 14 - - 0.0
23/07:30pm 14.4 12.2 9.2 71 2.7 SE 11 20 6 11 - - 0.0
23/07:00pm 14.9 12.2 9.1 68 3.0 SE 13 22 7 12 - - 0.0
23/06:30pm 14.8 13.1 8.3 65 3.3 SE 7 19 4 10 - - 0.0
23/06:00pm 15.2 13.5 7.7 61 3.8 SE 6 7 3 4 - - 0.0
23/05:30pm 16.7 15.0 8.4 58 4.3 SE 7 13 4 7 - - 0.0
23/05:00pm 17.8 15.0 8.6 55 4.8 SE 13 26 7 14 - - 0.0
23/04:30pm 18.6 16.2 8.6 52 5.2 SSE 11 20 6 11 - - 0.0
23/04:00pm 18.3 15.7 9.4 56 4.7 SSE 13 22 7 12 - - 0.0
23/03:30pm 18.4 16.4 10.0 58 4.5 SE 11 22 6 12 - - 0.0
23/03:00pm 18.2 15.8 10.1 59 4.4 SSE 13 24 7 13 - - 0.0
23/02:30pm 17.9 15.4 9.8 59 4.3 SE 13 28 7 15 - - 0.0
23/02:00pm 18.5 15.8 10.3 59 4.4 SE 15 28 8 15 - - 0.0
23/01:30pm 18.1 15.3 10.0 59 4.3 SE 15 32 8 17 - - 0.0
23/01:00pm 18.7 16.4 10.5 59 4.5 SE 13 22 7 12 - - 0.0
23/12:30pm 17.4 15.4 10.3 63 3.8 SE 11 20 6 11 - - 0.0
23/12:00pm 17.9 15.7 10.8 63 3.9 SE 13 24 7 13 - - 0.0
23/11:30am 16.7 14.2 11.0 69 3.1 SE 15 28 8 15 - - 0.0
23/11:00am 17.1 15.5 11.4 69 3.1 SE 11 26 6 14 - - 0.0
23/10:30am 16.6 14.9 11.3 71 2.9 ESE 11 20 6 11 - - 0.0
23/10:00am 15.9 14.2 11.1 73 2.6 SE 11 19 6 10 - - 0.0
23/09:30am 15.8 13.7 11.2 74 2.5 SE 13 24 7 13 - - 0.0
23/09:00am 15.0 13.5 12.0 82 1.6 SE 11 19 6 10 - - 0.0
23/08:30am 14.5 13.8 12.0 85 1.4 SSE 7 15 4 8 - - 0.0
23/08:00am 13.9 13.2 11.9 88 1.1 SE 7 19 4 10 - - 0.0
23/07:30am 13.4 12.6 11.6 89 1.0 SE 7 15 4 8 - - 0.0
23/07:00am 13.3 12.7 11.7 90 0.9 SE 6 13 3 7 - - 0.0
23/06:30am 13.2 12.6 11.8 91 0.8 SE 6 11 3 6 - - 0.0
23/06:00am 13.1 12.9 11.8 92 0.7 ESE 4 9 2 5 - - 0.0
23/05:30am 13.1 12.4 12.0 93 0.6 SE 7 17 4 9 - - 0.0
23/05:00am 13.0 12.8 11.9 93 0.6 SSE 4 7 2 4 - - 0.0
23/04:30am 12.7 12.1 11.8 94 0.5 SE 6 11 3 6 - - 0.0
23/04:00am 12.7 12.1 11.8 94 0.5 SSE 6 9 3 5 - - 0.0
23/03:30am 12.3 11.4 11.4 94 0.5 SE 7 15 4 8 - - 0.0
23/03:00am 10.5 10.0 9.4 93 0.6 ESE 2 7 1 4 - - 0.0
23/02:30am 9.8 9.5 8.6 92 0.6 CALM 0 0 0 0 - - 0.0
23/02:00am 9.8 9.1 8.4 91 0.7 ESE 2 6 1 3 - - 0.0
23/01:30am 9.7 8.9 8.3 91 0.7 SE 2 7 1 4 - - 0.0
23/01:00am 9.7 9.3 8.1 90 0.8 CALM 0 0 0 0 - - 0.0
23/12:30am 10.5 10.3 8.9 90 0.8 CALM 0 0 0 0 - - 0.0
23/12:00am 11.3 10.5 9.7 90 0.8 SE 4 7 2 4 - - 0.0
 
Date/Time
WST
Temp
°C
App
Temp
°C
Dew
Point
Rel
Hum
%
Delta-T
°C
Wind Press
QNH
hPa
Press
MSL
hPa
Rain
since 9 am
mm
Dir
 
Spd
km/h
Gust
km/h
Spd
kts
Gust
kts
22/11:30pm 10.6 10.3 8.7 88 0.9 CALM 0 4 0 2 - - 0.0
22/11:00pm 10.7 9.6 8.6 87 1.0 SE 4 7 2 4 - - 0.0
22/10:30pm 10.5 9.0 8.3 86 1.1 ESE 6 7 3 4 - - 0.0
22/10:00pm 10.2 8.9 7.8 85 1.2 SE 4 7 2 4 - - 0.0
22/09:30pm 10.5 10.0 7.9 84 1.3 CALM 0 0 0 0 - - 0.0
22/09:00pm 10.8 10.3 7.7 81 1.5 CALM 0 0 0 0 - - 0.0
22/08:30pm 11.5 11.1 8.4 81 1.5 CALM 0 0 0 0 - - 0.0
22/08:00pm 12.0 11.6 8.1 77 1.9 CALM 0 0 0 0 - - 0.0
22/07:30pm 12.9 12.5 8.2 73 2.4 CALM 0 0 0 0 - - 0.0
22/07:00pm 14.2 13.9 8.6 69 2.8 CALM 0 0 0 0 - - 0.0

Other Formats:

Comma delimited format used in spreadsheet applications
http://www.bom.gov.au/fwo/IDW60801/IDW60801.95621.axf

JavaScript Object Notation format (JSON) in row-major order
http://www.bom.gov.au/fwo/IDW60801/IDW60801.95621.json